KFUL/FUL METAR and TAF weather

Enter ICAO airport designator
Station Type Date Time Source
KFUL METAR 2022/01/26 18:53 UTC NOAA

KFUL 261853Z 00000KT 10SM CLR 16/07 A3013 RMK AO2 SLP202 T01610067


Station Type Date Time Source
KFUL Decoded METAR 2022/01/26 18:53 UTC NOAA

FULLERTON MUNICIPAL AIRPORT , CA, United States (KFUL) 33-52N 117-59W 35M
Jan 26, 2022 - 01:53 PM EST / 2022.01.26 1853 UTC
Wind: Calm:0
Visibility: 10 mile(s):0
Sky conditions: clear
Temperature: 61.0 F (16.1 C)
Dew Point: 44.1 F (6.7 C)
Relative Humidity: 53%
Pressure (altimeter): 30.13 in. Hg (1020 hPa)
ob: KFUL 261853Z 00000KT 10SM CLR 16/07 A3013 RMK AO2 SLP202 T01610067
cycle: 19

Station Type Date Time Source
KFUL TAF UTC NOAA

Error!

Example: see airport list